Terminal Aerodrome Forecast
Issued by NWS Sterling, VA

Home | Current Version | Previous Version | Text Only | Print | Product List | Glossary On
Versions: 1 2 3 4 5 6 7 8 9 10 11 12 13 14 15 16 17 18 19 20
426
FTUS41 KLWX 282322
TAFIAD
TAF
KIAD 282322Z 2900/3006 17008KT P6SM FEW045
     FM290200 15006KT P6SM FEW250
     FM291000 VRB03KT 5SM BR BKN200
     FM291200 17004KT P6SM BKN150
     FM291600 17005KT P6SM -SHRA OVC090
     FM292200 15005KT 5SM SHRA BR OVC045
     FM300400 VRB03KT 3SM SHRA BR OVC020=

USA.gov is the U.S. government's official web portal to all federal, state and local government web resources and services.